PROFILE

 METAR AND TAF INFORMATION
ADDS - METARS form results

(0620 UTC 22 September 2019)
http://aviationweather.gov/metar/data/
 
FGSL 220600Z 00000KT 9999 SCT010 BKN060 23/22 Q1013 NOSIG
TAF FGSL 220500Z 2206/2312 24008KT 9999 SCT010 TEMPO 2212/2217 BKN010 FEW020CB TEMPO 2220/2304 TS BKN010 FEW020CB TEMPO 2307/2312 4000 TSRA BKN010 FEW020CB 

 AIRPORT MAP

 RUNWAY INFORMATION
Runway 05 Runway length 9647 ft Runway width 151 ft
Runway elevation 75 ft Runway displaced threshold 0 ft Runway heading 42
Runway 23 Runway length 9647 ft Runway width 151 ft
Runway elevation 41 ft Runway displaced threshold 0 ft Runway heading 222

 AIRPORT FREQUENCIES
Type A/G Name A/G VOICE Frequency 655.9 MHZ
Type TWR Name TWR Frequency 128.3 MHZ

 AIRPORT NEAR NAVIGATION AIDS
Type NDB Name Bata Frequency 325 KHZ
Type VOR-DME Name Malabo Frequency 114500 KHZ
Type NDB Name Malabo Frequency 342 KHZ